createdAt,value
2019-04-27T00:01:55.522Z,14.60
2019-04-27T00:04:32.889Z,14.60
2019-04-27T00:07:03.666Z,14.60
2019-04-27T00:09:37.459Z,14.60
2019-04-27T00:12:11.029Z,14.50
2019-04-27T00:14:40.280Z,14.50
2019-04-27T00:17:44.911Z,14.40
2019-04-27T00:19:59.438Z,14.40
2019-04-27T00:22:30.195Z,14.30
2019-04-27T00:24:59.402Z,14.30
2019-04-27T00:27:28.404Z,14.20
2019-04-27T00:29:57.739Z,14.10
2019-04-27T00:32:27.060Z,14.10
2019-04-27T00:34:56.298Z,14.10
2019-04-27T00:37:27.016Z,14.00
2019-04-27T00:40:03.607Z,13.90
2019-04-27T00:42:33.316Z,13.90
2019-04-27T00:45:05.388Z,13.80
2019-04-27T00:47:35.059Z,13.70
2019-04-27T00:50:06.323Z,13.70
2019-04-27T00:52:35.612Z,13.60
2019-04-27T00:55:06.297Z,13.60
2019-04-27T00:57:55.364Z,13.60
2019-04-27T01:00:33.319Z,13.60
2019-04-27T01:03:07.088Z,13.50
2019-04-27T01:05:36.319Z,13.40
2019-04-27T01:08:05.721Z,13.40
2019-04-27T01:10:35.003Z,13.40
2019-04-27T01:13:04.186Z,13.30
2019-04-27T01:15:34.154Z,13.30
2019-04-27T01:18:12.106Z,13.30
2019-04-27T01:20:34.914Z,13.30
2019-04-27T01:23:04.126Z,13.30
2019-04-27T01:25:38.821Z,13.30
2019-04-27T01:28:20.660Z,13.30
2019-04-27T01:30:53.585Z,13.30
2019-04-27T01:33:22.885Z,13.30
2019-04-27T01:35:52.114Z,13.20
2019-04-27T01:38:21.462Z,13.20
2019-04-27T01:40:50.750Z,13.20
2019-04-27T01:43:19.927Z,13.20
2019-04-27T01:45:49.231Z,13.20
2019-04-27T01:48:25.106Z,13.20
2019-04-27T01:50:49.402Z,13.20
2019-04-27T01:53:19.108Z,13.10
2019-04-27T01:55:49.119Z,13.20
2019-04-27T01:58:20.230Z,13.10
2019-04-27T02:01:09.684Z,13.10
2019-04-27T02:03:43.275Z,13.10
2019-04-27T02:06:12.661Z,13.00
2019-04-27T02:08:41.965Z,13.00
2019-04-27T02:11:11.211Z,12.90
2019-04-27T02:13:40.401Z,13.00
2019-04-27T02:16:09.859Z,13.00
2019-04-27T02:18:40.038Z,12.90
2019-04-27T02:21:09.437Z,12.90
2019-04-27T02:23:39.373Z,12.90
2019-04-27T02:26:08.758Z,12.90
2019-04-27T02:28:39.507Z,12.90
2019-04-27T02:31:22.243Z,12.80
2019-04-27T02:34:02.110Z,12.80
2019-04-27T02:36:31.292Z,12.80
2019-04-27T02:39:00.595Z,12.70
2019-04-27T02:41:29.893Z,12.70
2019-04-27T02:44:01.752Z,12.70
2019-04-27T02:46:31.643Z,12.70
2019-04-27T02:49:06.345Z,12.70
2019-04-27T02:51:44.895Z,12.70
2019-04-27T02:54:14.234Z,12.60
2019-04-27T02:56:43.404Z,12.60
2019-04-27T02:59:12.520Z,12.60
2019-04-27T03:01:46.387Z,12.60
2019-04-27T03:04:14.060Z,12.60
2019-04-27T03:06:43.356Z,12.60
2019-04-27T03:09:12.638Z,12.60
2019-04-27T03:11:41.735Z,12.60
2019-04-27T03:14:29.369Z,12.50
2019-04-27T03:16:50.941Z,12.50
2019-04-27T03:19:40.147Z,12.50
2019-04-27T03:22:13.571Z,12.50
2019-04-27T03:25:00.083Z,12.50
2019-04-27T03:27:43.213Z,12.40
2019-04-27T03:30:13.699Z,12.40
2019-04-27T03:32:43.407Z,12.30
2019-04-27T03:35:13.629Z,12.30
2019-04-27T03:37:43.110Z,12.30
2019-04-27T03:40:12.357Z,12.30
2019-04-27T03:42:43.107Z,12.30
2019-04-27T03:45:12.414Z,12.30
2019-04-27T03:47:41.657Z,12.30
2019-04-27T03:50:12.528Z,12.20
2019-04-27T03:52:49.928Z,12.20
2019-04-27T03:55:39.808Z,12.20
2019-04-27T03:58:12.085Z,12.30
2019-04-27T04:00:42.214Z,12.20
2019-04-27T04:03:11.281Z,12.20
2019-04-27T04:05:40.528Z,12.30
2019-04-27T04:08:10.712Z,12.20
2019-04-27T04:10:50.969Z,12.30
2019-04-27T04:13:22.717Z,12.20
2019-04-27T04:15:56.319Z,12.20
2019-04-27T04:18:26.447Z,12.30
2019-04-27T04:20:55.610Z,12.30
2019-04-27T04:23:24.865Z,12.20
2019-04-27T04:25:54.043Z,12.30
2019-04-27T04:28:23.431Z,12.30
2019-04-27T04:30:52.688Z,12.30
2019-04-27T04:33:21.992Z,12.30
2019-04-27T04:35:51.220Z,12.40
2019-04-27T04:38:21.010Z,12.30
2019-04-27T04:41:00.732Z,12.30
2019-04-27T04:43:39.761Z,12.40
2019-04-27T04:46:26.344Z,12.40
2019-04-27T04:48:55.523Z,12.40
2019-04-27T04:51:25.055Z,12.40
2019-04-27T04:53:54.384Z,12.50
2019-04-27T04:56:23.586Z,12.50
2019-04-27T04:58:52.903Z,12.50
2019-04-27T05:01:22.141Z,12.50
2019-04-27T05:03:51.279Z,12.60
2019-04-27T05:06:20.567Z,12.60
2019-04-27T05:08:49.992Z,12.60
2019-04-27T05:11:19.593Z,12.60
2019-04-27T05:13:49.402Z,12.70
2019-04-27T05:16:19.049Z,12.80
2019-04-27T05:18:49.506Z,12.80
2019-04-27T05:21:23.475Z,12.80
2019-04-27T05:23:52.839Z,12.80
2019-04-27T05:26:22.043Z,12.90
2019-04-27T05:28:51.288Z,12.90
2019-04-27T05:31:20.554Z,12.90
2019-04-27T05:33:49.861Z,13.00
2019-04-27T05:36:19.404Z,13.00
2019-04-27T05:38:49.851Z,12.90
2019-04-27T05:41:19.192Z,13.00
2019-04-27T05:43:59.239Z,13.00
2019-04-27T05:46:36.775Z,13.10
2019-04-27T05:49:09.381Z,13.10
2019-04-27T05:51:40.533Z,13.20
2019-04-27T05:54:09.254Z,13.20
2019-04-27T05:56:39.060Z,13.30
2019-04-27T05:59:09.179Z,13.30
2019-04-27T06:01:39.067Z,13.30
2019-04-27T06:04:09.072Z,13.40
2019-04-27T06:06:39.902Z,13.40
2019-04-27T06:09:09.626Z,13.40
2019-04-27T06:11:40.044Z,13.40
2019-04-27T06:14:09.835Z,13.50
2019-04-27T06:16:39.473Z,13.50
2019-04-27T06:19:09.642Z,13.50
2019-04-27T06:21:40.114Z,13.50
2019-04-27T06:24:09.525Z,13.50
2019-04-27T06:26:39.994Z,13.50
2019-04-27T06:29:10.967Z,13.60
2019-04-27T06:31:40.130Z,13.50
2019-04-27T06:34:09.827Z,13.60
2019-04-27T06:36:39.003Z,13.50
2019-04-27T06:39:09.840Z,13.50
2019-04-27T06:41:40.045Z,13.50
2019-04-27T06:44:11.298Z,13.50
2019-04-27T06:46:40.553Z,13.50
2019-04-27T06:49:11.104Z,13.50
2019-04-27T06:51:40.412Z,13.40
2019-04-27T06:54:09.689Z,13.40
2019-04-27T06:56:39.067Z,13.40
2019-04-27T06:59:08.772Z,13.30
2019-04-27T07:01:39.060Z,13.30
2019-04-27T07:04:08.829Z,13.30
2019-04-27T07:06:52.928Z,13.20
2019-04-27T07:09:10.019Z,13.30
2019-04-27T07:11:39.389Z,13.30
2019-04-27T07:14:11.246Z,13.30
2019-04-27T07:16:39.560Z,13.30
2019-04-27T07:19:09.447Z,13.30
2019-04-27T07:21:40.010Z,13.30
2019-04-27T07:24:09.419Z,13.30
2019-04-27T07:26:39.230Z,13.20
2019-04-27T07:29:09.556Z,13.30
2019-04-27T07:31:40.019Z,13.20
2019-04-27T07:34:09.595Z,13.20
2019-04-27T07:36:39.284Z,13.20
2019-04-27T07:39:10.999Z,13.20
2019-04-27T07:41:39.719Z,13.20
2019-04-27T07:44:13.153Z,13.30
2019-04-27T07:46:42.468Z,13.30
2019-04-27T07:49:11.771Z,13.30
2019-04-27T07:51:40.958Z,13.30
2019-04-27T07:54:10.207Z,13.30
2019-04-27T07:56:39.458Z,13.40
2019-04-27T07:59:09.198Z,13.40
2019-04-27T08:01:39.297Z,13.30
2019-04-27T08:04:09.102Z,13.30
2019-04-27T08:06:38.721Z,13.20
2019-04-27T08:09:09.381Z,13.20
2019-04-27T08:11:39.141Z,13.20
2019-04-27T08:14:08.831Z,13.20
2019-04-27T08:16:38.836Z,13.30
2019-04-27T08:19:09.932Z,13.30
2019-04-27T08:21:44.440Z,13.30
2019-04-27T08:24:11.230Z,13.40
2019-04-27T08:26:42.083Z,13.40
2019-04-27T08:29:32.932Z,13.50
2019-04-27T08:32:03.219Z,13.50
2019-04-27T08:34:37.060Z,13.50
2019-04-27T08:37:06.473Z,13.50
2019-04-27T08:39:35.584Z,13.50
2019-04-27T08:42:04.886Z,13.50
2019-04-27T08:44:34.115Z,13.40
2019-04-27T08:47:03.412Z,13.30
2019-04-27T08:49:32.699Z,13.30
2019-04-27T08:52:02.111Z,13.30
2019-04-27T08:54:31.451Z,13.20
2019-04-27T08:57:01.751Z,13.20
2019-04-27T08:59:30.970Z,13.20
2019-04-27T09:02:00.286Z,13.10
2019-04-27T09:04:29.595Z,13.10
2019-04-27T09:07:00.167Z,13.10
2019-04-27T09:09:33.984Z,13.10
2019-04-27T09:12:20.868Z,13.10
2019-04-27T09:14:51.603Z,13.10
2019-04-27T09:17:25.319Z,13.10
2019-04-27T09:19:56.114Z,13.10
2019-04-27T09:22:25.221Z,13.10
2019-04-27T09:24:54.546Z,13.20
2019-04-27T09:27:23.637Z,13.20
2019-04-27T09:29:52.959Z,13.30
2019-04-27T09:32:22.138Z,13.20
2019-04-27T09:34:51.428Z,13.30
2019-04-27T09:37:20.563Z,13.30
2019-04-27T09:39:49.773Z,13.50
2019-04-27T09:42:19.076Z,13.50
2019-04-27T09:44:48.239Z,13.50
2019-04-27T09:47:17.491Z,13.50
2019-04-27T09:49:46.572Z,13.50
2019-04-27T09:52:24.453Z,13.60
2019-04-27T09:54:48.098Z,13.70
2019-04-27T09:57:17.241Z,13.70
2019-04-27T09:59:46.364Z,13.70
2019-04-27T10:02:16.522Z,13.60
2019-04-27T10:04:46.163Z,13.60
2019-04-27T10:07:16.568Z,13.50
2019-04-27T10:09:47.304Z,13.40
2019-04-27T10:12:16.706Z,13.40
2019-04-27T10:14:47.655Z,13.30
2019-04-27T10:17:16.683Z,13.20
2019-04-27T10:19:46.192Z,13.10
2019-04-27T10:22:15.979Z,13.10
2019-04-27T10:24:45.260Z,13.10
2019-04-27T10:27:16.093Z,13.10
2019-04-27T10:29:46.778Z,13.10
2019-04-27T10:32:16.241Z,13.20
2019-04-27T10:34:45.713Z,13.20
2019-04-27T10:37:16.070Z,13.20
2019-04-27T10:39:45.968Z,13.20
2019-04-27T10:42:15.243Z,13.30
2019-04-27T10:44:46.229Z,13.30
2019-04-27T10:47:15.820Z,13.30
2019-04-27T10:49:46.575Z,13.30
2019-04-27T10:52:16.045Z,13.40
2019-04-27T10:54:45.315Z,13.30
2019-04-27T10:57:15.828Z,13.30
2019-04-27T10:59:46.173Z,13.20
2019-04-27T11:02:15.455Z,13.20
2019-04-27T11:04:49.135Z,13.20
2019-04-27T11:07:19.931Z,13.10
2019-04-27T11:09:49.048Z,13.10
2019-04-27T11:12:18.396Z,13.10
2019-04-27T11:14:47.599Z,13.10
2019-04-27T11:17:16.905Z,13.20
2019-04-27T11:19:46.274Z,13.20
2019-04-27T11:22:16.001Z,13.20
2019-04-27T11:24:45.804Z,13.30
2019-04-27T11:27:15.955Z,13.30
2019-04-27T11:29:46.193Z,13.40
2019-04-27T11:32:15.919Z,13.40
2019-04-27T11:34:58.987Z,13.50
2019-04-27T11:37:30.249Z,13.50
2019-04-27T11:39:59.497Z,13.40
2019-04-27T11:42:28.774Z,13.40
2019-04-27T11:44:58.388Z,13.30
2019-04-27T11:47:27.815Z,13.10
2019-04-27T11:49:57.942Z,13.10
2019-04-27T11:52:27.253Z,13.10
2019-04-27T11:54:56.789Z,13.10
2019-04-27T11:57:26.249Z,13.10
2019-04-27T11:59:58.109Z,13.10
2019-04-27T12:02:27.340Z,13.10
2019-04-27T12:04:56.869Z,13.10
2019-04-27T12:07:26.138Z,13.00
2019-04-27T12:09:55.619Z,12.90
2019-04-27T12:12:26.203Z,12.90
2019-04-27T12:14:57.757Z,13.00
2019-04-27T12:17:29.185Z,13.20
2019-04-27T12:19:57.981Z,13.10
2019-04-27T12:22:27.203Z,13.20
2019-04-27T12:24:56.583Z,13.40
2019-04-27T12:27:33.292Z,13.60
2019-04-27T12:30:20.437Z,13.80
2019-04-27T12:32:49.763Z,13.90
2019-04-27T12:35:18.847Z,14.00
2019-04-27T12:37:48.193Z,14.00
2019-04-27T12:40:17.430Z,14.00
2019-04-27T12:42:46.658Z,14.10
2019-04-27T12:45:18.009Z,14.30
2019-04-27T12:47:46.773Z,14.50
2019-04-27T12:50:17.223Z,14.80
2019-04-27T12:52:48.096Z,15.00
2019-04-27T12:55:18.757Z,15.10
2019-04-27T12:57:55.492Z,15.20
2019-04-27T13:00:26.651Z,15.30
2019-04-27T13:02:57.775Z,15.40
2019-04-27T13:05:26.833Z,15.40
2019-04-27T13:07:55.968Z,15.60
2019-04-27T13:10:25.155Z,15.70
2019-04-27T13:12:56.185Z,15.70
2019-04-27T13:15:26.490Z,15.90
2019-04-27T13:17:57.386Z,16.00
2019-04-27T13:20:26.687Z,16.10
2019-04-27T13:22:56.038Z,16.30
2019-04-27T13:25:25.413Z,16.60
2019-04-27T13:28:08.248Z,16.70
2019-04-27T13:30:37.459Z,17.10
2019-04-27T13:33:06.532Z,17.50
2019-04-27T13:35:35.627Z,17.80
2019-04-27T13:38:05.048Z,18.30
2019-04-27T13:40:39.009Z,18.60
2019-04-27T13:43:09.696Z,19.00
2019-04-27T13:45:49.881Z,18.90
2019-04-27T13:48:29.553Z,19.20
2019-04-27T13:51:03.150Z,19.30
2019-04-27T13:53:32.343Z,19.10
2019-04-27T13:56:03.075Z,18.70
2019-04-27T13:58:32.226Z,18.50
2019-04-27T14:01:01.434Z,18.20
2019-04-27T14:03:30.476Z,17.90
2019-04-27T14:06:01.097Z,17.80
2019-04-27T14:08:30.466Z,17.50
2019-04-27T14:11:01.247Z,17.40
2019-04-27T14:13:30.543Z,17.10
2019-04-27T14:15:59.598Z,16.90
2019-04-27T14:18:29.205Z,16.70
2019-04-27T14:20:59.241Z,16.50
2019-04-27T14:23:29.973Z,16.40
2019-04-27T14:26:00.391Z,16.30
2019-04-27T14:28:29.807Z,16.10
2019-04-27T14:30:59.134Z,16.00
2019-04-27T14:33:28.487Z,15.70
2019-04-27T14:35:59.427Z,15.60
2019-04-27T14:38:28.523Z,15.40
2019-04-27T14:40:59.357Z,15.30
2019-04-27T14:43:28.716Z,15.30
2019-04-27T14:45:58.337Z,15.20
2019-04-27T14:48:29.579Z,15.20
2019-04-27T14:50:59.046Z,15.20
2019-04-27T14:53:28.451Z,15.30
2019-04-27T14:55:58.416Z,15.40
2019-04-27T14:58:28.341Z,15.50
2019-04-27T15:00:58.485Z,15.50
2019-04-27T15:03:27.859Z,15.50
2019-04-27T15:05:57.111Z,15.60
2019-04-27T15:08:26.319Z,15.60
2019-04-27T15:10:55.495Z,15.70
2019-04-27T15:13:24.754Z,15.80
2019-04-27T15:15:54.057Z,15.80
2019-04-27T15:18:24.413Z,15.90
2019-04-27T15:20:53.844Z,15.80
2019-04-27T15:23:26.668Z,15.70
2019-04-27T15:25:54.024Z,15.60
2019-04-27T15:28:27.822Z,15.40
2019-04-27T15:30:59.572Z,15.20
2019-04-27T15:33:53.292Z,15.00
2019-04-27T15:36:35.869Z,14.80
2019-04-27T15:39:15.455Z,14.50
2019-04-27T15:41:52.198Z,14.30
2019-04-27T15:44:21.487Z,14.30
2019-04-27T15:46:50.728Z,14.10
2019-04-27T15:49:20.005Z,14.10
2019-04-27T15:51:50.721Z,14.10
2019-04-27T15:54:22.313Z,14.00
2019-04-27T15:56:50.724Z,14.10
2019-04-27T15:59:21.516Z,14.20
2019-04-27T16:01:50.712Z,14.10
2019-04-27T16:04:19.871Z,14.20
2019-04-27T16:06:49.160Z,14.20
2019-04-27T16:09:24.231Z,14.20
2019-04-27T16:11:58.339Z,14.20
2019-04-27T16:14:21.543Z,14.20
2019-04-27T16:16:50.775Z,14.20
2019-04-27T16:19:19.915Z,14.10
2019-04-27T16:21:54.049Z,14.10
2019-04-27T16:24:21.217Z,14.00
2019-04-27T16:26:54.677Z,14.00
2019-04-27T16:29:23.138Z,14.10
2019-04-27T16:31:52.078Z,14.10
2019-04-27T16:34:21.376Z,14.00
2019-04-27T16:36:50.703Z,14.10
2019-04-27T16:39:20.418Z,14.10
2019-04-27T16:41:50.327Z,14.20
2019-04-27T16:44:19.543Z,13.20
2019-04-27T16:46:48.985Z,14.30
2019-04-27T16:49:18.764Z,12.90
2019-04-27T16:51:49.169Z,14.30
2019-04-27T16:54:21.423Z,14.30
2019-04-27T16:56:53.095Z,14.30
2019-04-27T16:59:39.748Z,14.40
2019-04-27T17:01:50.983Z,14.70
2019-04-27T17:04:20.143Z,14.40
2019-04-27T17:06:49.631Z,14.40
2019-04-27T17:09:19.074Z,14.40
2019-04-27T17:11:50.350Z,14.90
2019-04-27T17:14:29.201Z,14.40
2019-04-27T17:16:59.051Z,14.40
2019-04-27T17:19:30.708Z,14.40
2019-04-27T17:22:00.026Z,14.50
2019-04-27T17:24:37.567Z,14.40
2019-04-27T17:27:04.377Z,14.50
2019-04-27T17:29:35.217Z,14.50
2019-04-27T17:32:05.053Z,14.50
2019-04-27T17:34:34.357Z,14.40
2019-04-27T17:37:03.631Z,14.40
2019-04-27T17:39:33.066Z,14.40
2019-04-27T17:42:02.458Z,14.40
2019-04-27T17:44:31.561Z,14.40
2019-04-27T17:47:00.953Z,14.20
2019-04-27T17:49:30.286Z,13.90
2019-04-27T17:51:59.489Z,13.60
2019-04-27T17:54:29.052Z,13.20
2019-04-27T17:56:58.321Z,13.00
2019-04-27T17:59:27.552Z,12.60
2019-04-27T18:02:00.850Z,12.40
2019-04-27T18:04:28.777Z,12.20
2019-04-27T18:07:00.198Z,12.10
2019-04-27T18:09:29.091Z,12.00
2019-04-27T18:11:58.675Z,12.00
2019-04-27T18:14:32.513Z,11.90
2019-04-27T18:16:58.767Z,11.90
2019-04-27T18:19:32.491Z,11.90
2019-04-27T18:22:03.570Z,11.90
2019-04-27T18:24:40.807Z,12.00
2019-04-27T18:27:15.158Z,11.90
2019-04-27T18:29:44.402Z,11.90
2019-04-27T18:32:13.912Z,11.90
2019-04-27T18:34:45.265Z,12.00
2019-04-27T18:37:21.334Z,11.90
2019-04-27T18:39:53.344Z,11.90
2019-04-27T18:42:18.188Z,11.90
2019-04-27T18:44:48.568Z,11.90
2019-04-27T18:47:19.011Z,11.90
2019-04-27T18:50:08.029Z,11.90
2019-04-27T18:52:40.785Z,11.90
2019-04-27T18:55:10.959Z,11.90
2019-04-27T18:57:39.236Z,11.90
2019-04-27T19:00:14.059Z,11.80
2019-04-27T19:02:44.722Z,11.70
2019-04-27T19:05:16.115Z,11.70
2019-04-27T19:07:48.435Z,11.60
2019-04-27T19:10:19.337Z,11.60
2019-04-27T19:12:49.773Z,11.50
2019-04-27T19:15:21.090Z,11.50
2019-04-27T19:17:53.893Z,11.50
2019-04-27T19:20:24.287Z,11.40
2019-04-27T19:22:53.627Z,11.50
2019-04-27T19:25:28.777Z,11.50
2019-04-27T19:28:09.314Z,11.50
2019-04-27T19:30:47.742Z,11.60
2019-04-27T19:33:18.119Z,11.70
2019-04-27T19:35:49.219Z,11.70
2019-04-27T19:38:21.249Z,11.80
2019-04-27T19:40:54.071Z,11.80
2019-04-27T19:43:28.358Z,11.90
2019-04-27T19:46:02.808Z,11.90
2019-04-27T19:48:32.907Z,11.90
2019-04-27T19:51:02.300Z,12.00
2019-04-27T19:53:31.889Z,12.00
2019-04-27T19:56:04.698Z,12.10
2019-04-27T19:58:36.011Z,12.10
2019-04-27T20:01:13.857Z,12.10
2019-04-27T20:03:41.975Z,12.10
2019-04-27T20:06:11.279Z,12.10
2019-04-27T20:08:45.601Z,12.10
2019-04-27T20:11:15.046Z,12.10
2019-04-27T20:13:45.754Z,12.10
2019-04-27T20:16:16.164Z,12.20
2019-04-27T20:18:46.231Z,12.20
2019-04-27T20:21:20.898Z,12.20
2019-04-27T20:23:51.765Z,12.30
2019-04-27T20:26:22.978Z,12.20
2019-04-27T20:28:54.375Z,12.20
2019-04-27T20:31:23.968Z,12.20
2019-04-27T20:33:54.620Z,12.20
2019-04-27T20:36:27.077Z,12.20
2019-04-27T20:39:01.271Z,12.30
2019-04-27T20:41:34.704Z,13.00
2019-04-27T20:44:08.051Z,12.20
2019-04-27T20:46:38.070Z,12.30
2019-04-27T20:49:22.168Z,12.30
2019-04-27T20:52:02.315Z,12.30
2019-04-27T20:54:32.683Z,12.30
2019-04-27T20:57:02.065Z,12.30
2019-04-27T20:59:31.512Z,12.30
2019-04-27T21:02:02.242Z,12.40
2019-04-27T21:04:33.091Z,12.30
2019-04-27T21:07:07.139Z,12.30
2019-04-27T21:09:35.615Z,12.20
2019-04-27T21:12:04.884Z,12.30
2019-04-27T21:14:34.225Z,12.30
2019-04-27T21:17:04.833Z,12.30
2019-04-27T21:19:34.937Z,12.30
2019-04-27T21:22:04.352Z,12.30
2019-04-27T21:24:34.254Z,12.30
2019-04-27T21:27:03.965Z,12.30
2019-04-27T21:29:33.208Z,12.20
2019-04-27T21:32:03.701Z,12.20
2019-04-27T21:34:33.333Z,12.30
2019-04-27T21:37:02.655Z,12.30
2019-04-27T21:39:32.095Z,12.20
2019-04-27T21:42:01.533Z,12.20
2019-04-27T21:44:31.977Z,12.30
2019-04-27T21:47:01.420Z,12.30
2019-04-27T21:49:31.459Z,12.30
2019-04-27T21:52:02.615Z,12.30
2019-04-27T21:54:33.648Z,12.30
2019-04-27T21:57:03.569Z,12.40
2019-04-27T21:59:32.741Z,12.40
2019-04-27T22:02:03.548Z,12.40
2019-04-27T22:04:33.002Z,12.40
2019-04-27T22:07:02.367Z,12.40
2019-04-27T22:09:31.730Z,12.40
2019-04-27T22:12:02.570Z,12.40
2019-04-27T22:14:31.943Z,12.40
2019-04-27T22:17:01.700Z,12.40
2019-04-27T22:19:31.462Z,12.40
2019-04-27T22:22:02.547Z,12.50
2019-04-27T22:24:33.554Z,12.50
2019-04-27T22:27:03.100Z,12.50
2019-04-27T22:29:32.391Z,12.50
2019-04-27T22:32:01.845Z,12.50
2019-04-27T22:34:31.518Z,12.50
2019-04-27T22:37:02.633Z,12.40
2019-04-27T22:39:39.381Z,12.50
2019-04-27T22:42:26.869Z,12.40
2019-04-27T22:44:57.563Z,12.40
2019-04-27T22:47:26.939Z,12.50
2019-04-27T22:49:56.346Z,12.40
2019-04-27T22:52:25.604Z,12.40
2019-04-27T22:54:54.864Z,12.40
2019-04-27T22:57:25.633Z,12.40
2019-04-27T23:00:13.025Z,12.40
2019-04-27T23:02:43.949Z,12.40
2019-04-27T23:05:13.154Z,12.40
2019-04-27T23:07:42.604Z,12.40
2019-04-27T23:10:11.659Z,12.40
2019-04-27T23:12:41.920Z,12.40
2019-04-27T23:15:12.576Z,12.40
2019-04-27T23:17:52.435Z,12.40
2019-04-27T23:20:21.763Z,12.40
2019-04-27T23:22:50.986Z,12.30
2019-04-27T23:25:20.127Z,12.40
2019-04-27T23:27:51.283Z,12.40
2019-04-27T23:30:21.624Z,12.30
2019-04-27T23:32:52.424Z,12.30
2019-04-27T23:35:21.535Z,12.30
2019-04-27T23:37:52.701Z,12.30
2019-04-27T23:40:21.976Z,12.30
2019-04-27T23:42:51.674Z,12.20
2019-04-27T23:45:22.409Z,12.20
2019-04-27T23:47:51.833Z,12.10
2019-04-27T23:50:21.899Z,12.20
2019-04-27T23:52:52.832Z,12.20
2019-04-27T23:55:23.483Z,12.20
2019-04-27T23:57:52.839Z,12.20
